Time;durP1;ratioP1;P1;durP2;ratioP2;P2;SDS_P1;SDS_P2;PMS_P1;PMS_P2;Temp;Humidity;BMP_temperature;BMP_pressure;BME280_temperature;BME280_humidity;BME280_pressure;Samples;Min_cycle;Max_cycle;Signal;HPM_P1;HPM_P2
2022/02/28 00:02:03;;;;;;;13.27;6.00;;;0.00;99.90;;;;;;5050440;28;20206;-69
2022/02/28 00:04:32;;;;;;;11.63;6.10;;;0.00;99.90;;;;;;5045670;28;20609;-68
2022/02/28 00:06:58;;;;;;;14.70;7.03;;;0.00;99.90;;;;;;5052722;28;20304;-69
2022/02/28 00:09:25;;;;;;;14.07;6.70;;;0.00;99.90;;;;;;5044834;28;20203;-69
2022/02/28 00:11:52;;;;;;;11.20;6.10;;;0.00;99.90;;;;;;5050672;28;20226;-68
2022/02/28 00:14:19;;;;;;;11.07;6.80;;;0.00;99.90;;;;;;5063330;28;20205;-69
2022/02/28 00:16:47;;;;;;;11.60;6.67;;;-0.10;99.90;;;;;;5054674;28;20229;-69
2022/02/28 00:19:14;;;;;;;17.33;6.43;;;-0.20;99.90;;;;;;5056765;28;20296;-70
2022/02/28 00:21:42;;;;;;;10.03;6.07;;;-0.10;99.90;;;;;;5053248;28;20634;-68
2022/02/28 00:24:09;;;;;;;13.30;6.67;;;-0.10;99.90;;;;;;5059341;28;20232;-68
2022/02/28 00:26:36;;;;;;;11.20;6.50;;;-0.10;99.90;;;;;;5052739;28;20237;-68
2022/02/28 00:29:03;;;;;;;11.43;5.97;;;-0.10;99.90;;;;;;5056139;28;20244;-68
2022/02/28 00:31:29;;;;;;;11.53;5.60;;;-0.20;99.90;;;;;;5052053;28;20317;-68
2022/02/28 00:33:56;;;;;;;10.37;6.40;;;-0.20;99.90;;;;;;5047626;28;20222;-68
2022/02/28 00:36:26;;;;;;;9.63;5.50;;;-0.20;99.90;;;;;;5044783;28;20263;-67
2022/02/28 00:38:54;;;;;;;11.50;6.20;;;-0.20;99.90;;;;;;5049841;28;20206;-69
2022/02/28 00:41:21;;;;;;;12.17;6.10;;;-0.20;99.90;;;;;;5043814;28;20194;-69
2022/02/28 00:43:48;;;;;;;10.57;5.57;;;-0.20;99.90;;;;;;5048201;28;20273;-69
2022/02/28 00:46:15;;;;;;;11.90;5.87;;;-0.20;99.90;;;;;;5041568;28;20213;-68
2022/02/28 00:48:42;;;;;;;10.27;5.63;;;-0.30;99.90;;;;;;5045751;28;20301;-69
2022/02/28 00:51:09;;;;;;;12.67;6.60;;;-0.30;99.90;;;;;;5047842;28;20234;-69
2022/02/28 00:53:36;;;;;;;11.00;5.73;;;-0.30;99.90;;;;;;5050816;28;20202;-69
2022/02/28 00:56:05;;;;;;;10.77;5.70;;;-0.30;99.90;;;;;;5047724;28;20210;-68
2022/02/28 00:58:32;;;;;;;14.07;6.57;;;-0.30;99.90;;;;;;5055350;28;20206;-68
2022/02/28 01:00:59;;;;;;;13.37;6.67;;;-0.30;99.90;;;;;;5049372;28;20242;-68
2022/02/28 01:03:26;;;;;;;9.13;5.93;;;-0.30;99.90;;;;;;5054517;28;20203;-68
2022/02/28 01:05:53;;;;;;;9.70;5.40;;;-0.30;99.90;;;;;;5057338;28;20262;-68
2022/02/28 01:08:21;;;;;;;11.00;6.23;;;-0.30;99.90;;;;;;5052736;28;20301;-68
2022/02/28 01:10:48;;;;;;;12.77;6.43;;;-0.30;99.90;;;;;;5048988;28;20659;-68
2022/02/28 01:13:16;;;;;;;12.03;6.43;;;-0.30;99.90;;;;;;5055742;28;20222;-68
2022/02/28 01:15:43;;;;;;;9.83;5.27;;;-0.30;99.90;;;;;;5055100;28;20209;-68
2022/02/28 01:18:10;;;;;;;9.83;5.83;;;-0.30;99.90;;;;;;5068054;28;20300;-68
2022/02/28 01:20:37;;;;;;;11.93;5.93;;;-0.30;99.90;;;;;;5047646;28;20313;-69
2022/02/28 01:23:05;;;;;;;14.47;6.67;;;-0.30;99.90;;;;;;5042372;28;20226;-69
2022/02/28 01:25:31;;;;;;;9.10;6.20;;;-0.30;99.90;;;;;;5051897;28;20244;-68
2022/02/28 01:27:58;;;;;;;11.53;6.40;;;-0.30;99.90;;;;;;5050381;28;20666;-68
2022/02/28 01:30:26;;;;;;;8.73;5.73;;;-0.30;99.90;;;;;;5047859;28;20644;-68
2022/02/28 01:32:54;;;;;;;9.87;6.20;;;-0.30;99.90;;;;;;5049202;28;20220;-68
2022/02/28 01:35:21;;;;;;;10.47;6.20;;;-0.40;99.90;;;;;;5048747;28;20220;-67
2022/02/28 01:37:48;;;;;;;9.67;5.80;;;-0.30;99.90;;;;;;5054735;28;20268;-68
2022/02/28 01:40:16;;;;;;;9.67;5.67;;;-0.30;99.90;;;;;;5055068;28;20289;-67
2022/02/28 01:42:44;;;;;;;10.60;5.77;;;-0.40;99.90;;;;;;5064735;28;20228;-66
2022/02/28 01:45:12;;;;;;;12.73;5.83;;;-0.40;99.90;;;;;;5053909;28;20205;-66
2022/02/28 01:47:41;;;;;;;13.47;6.10;;;-0.40;99.90;;;;;;5053957;28;20216;-66
2022/02/28 01:50:10;;;;;;;10.87;5.97;;;-0.40;99.90;;;;;;5051389;28;20691;-67
2022/02/28 01:52:37;;;;;;;11.00;6.43;;;-0.40;99.90;;;;;;5055521;28;20265;-67
2022/02/28 01:55:05;;;;;;;12.33;5.97;;;-0.40;99.90;;;;;;5055417;28;20664;-67
2022/02/28 01:57:32;;;;;;;11.17;5.43;;;-0.50;99.90;;;;;;5054059;28;20293;-67
2022/02/28 01:59:59;;;;;;;11.07;5.97;;;-0.50;99.90;;;;;;5053306;28;20304;-67
2022/02/28 02:02:26;;;;;;;11.17;6.03;;;-0.50;99.90;;;;;;5057035;28;20202;-69
2022/02/28 02:04:54;;;;;;;10.63;5.73;;;-0.50;99.90;;;;;;5052879;28;20289;-69
2022/02/28 02:07:21;;;;;;;8.77;6.00;;;-0.50;99.90;;;;;;5049504;28;20637;-69
2022/02/28 02:09:48;;;;;;;9.87;6.07;;;-0.50;99.90;;;;;;5067779;28;20206;-69
2022/02/28 02:12:15;;;;;;;11.53;5.37;;;-0.50;99.90;;;;;;5054097;28;20254;-69
2022/02/28 02:14:42;;;;;;;10.90;5.70;;;-0.50;99.90;;;;;;5055573;28;20701;-70
2022/02/28 02:17:09;;;;;;;10.97;6.00;;;-0.50;99.90;;;;;;5050489;28;20541;-68
2022/02/28 02:19:38;;;;;;;13.27;6.40;;;-0.60;99.90;;;;;;5052770;28;20255;-69
2022/02/28 02:22:08;;;;;;;11.57;5.67;;;-0.60;99.90;;;;;;5051031;28;20406;-69
2022/02/28 02:24:34;;;;;;;8.27;5.43;;;-0.60;99.90;;;;;;5053771;28;20296;-70
2022/02/28 02:27:01;;;;;;;10.57;6.00;;;-0.60;99.90;;;;;;5048782;28;20216;-69
2022/02/28 02:29:28;;;;;;;11.37;6.27;;;-0.60;99.90;;;;;;5056045;28;21118;-70
2022/02/28 02:31:55;;;;;;;8.83;5.70;;;-0.60;99.90;;;;;;5053992;28;20750;-69
2022/02/28 02:34:22;;;;;;;11.23;5.80;;;-0.70;99.90;;;;;;5054355;28;20667;-69
2022/02/28 02:36:49;;;;;;;10.17;5.53;;;-0.60;99.90;;;;;;5052474;28;20241;-70
2022/02/28 02:39:17;;;;;;;10.50;6.23;;;-0.60;99.90;;;;;;5052257;28;20198;-70
2022/02/28 02:41:44;;;;;;;8.97;5.40;;;-0.70;99.90;;;;;;5055059;28;20209;-70
2022/02/28 02:44:11;;;;;;;9.30;5.77;;;-0.70;99.90;;;;;;5064624;28;20320;-70
2022/02/28 02:46:46;;;;;;;13.03;5.43;;;-0.70;99.90;;;;;;5046199;28;20292;-69
2022/02/28 02:49:14;;;;;;;9.67;5.73;;;-0.70;99.90;;;;;;5047759;28;20213;-69
2022/02/28 02:51:42;;;;;;;11.07;5.30;;;-0.70;99.90;;;;;;5050552;28;20210;-70
2022/02/28 02:54:08;;;;;;;8.87;6.10;;;-0.70;99.90;;;;;;5044151;28;20210;-69
2022/02/28 02:56:37;;;;;;;10.73;5.70;;;-0.80;99.90;;;;;;5043534;28;20198;-69
2022/02/28 02:59:04;;;;;;;10.87;5.27;;;-0.80;99.90;;;;;;5051329;28;20296;-70
2022/02/28 03:01:31;;;;;;;10.63;6.10;;;-0.80;99.90;;;;;;5049862;28;20233;-69
2022/02/28 03:03:59;;;;;;;11.00;6.13;;;-0.70;99.90;;;;;;5044690;28;20213;-70
2022/02/28 03:06:26;;;;;;;9.63;5.97;;;-0.80;99.90;;;;;;5067688;28;20228;-70
2022/02/28 03:08:54;;;;;;;9.17;5.73;;;-0.90;99.90;;;;;;5072036;28;20284;-69
2022/02/28 03:11:21;;;;;;;11.47;5.80;;;-0.90;99.90;;;;;;5056176;28;20209;-70
2022/02/28 03:13:49;;;;;;;8.70;5.70;;;-0.90;99.90;;;;;;5051362;28;20690;-70
2022/02/28 03:16:16;;;;;;;8.60;5.70;;;-0.90;99.90;;;;;;5050650;28;20350;-70
2022/02/28 03:18:43;;;;;;;9.60;5.90;;;-0.90;99.90;;;;;;5041568;28;20198;-70
2022/02/28 03:21:10;;;;;;;9.60;5.40;;;-0.90;99.90;;;;;;5052330;28;20265;-70
2022/02/28 03:23:36;;;;;;;10.47;5.80;;;-0.90;99.90;;;;;;5046103;28;20625;-69
2022/02/28 03:26:04;;;;;;;9.90;5.83;;;-0.90;99.90;;;;;;5045702;28;20216;-70
2022/02/28 03:28:31;;;;;;;9.33;5.90;;;-1.00;99.90;;;;;;5050211;28;20202;-70
2022/02/28 03:30:59;;;;;;;9.20;5.57;;;-1.00;99.90;;;;;;5048714;28;20218;-73
2022/02/28 03:33:26;;;;;;;8.37;4.97;;;-1.00;99.90;;;;;;5048153;28;20230;-70
2022/02/28 03:35:53;;;;;;;8.80;5.43;;;-1.00;99.90;;;;;;5065387;28;20208;-69
2022/02/28 03:38:20;;;;;;;9.53;5.87;;;-1.10;99.90;;;;;;5051405;28;20233;-70
2022/02/28 03:40:48;;;;;;;8.60;5.37;;;-1.10;99.90;;;;;;5061277;28;20214;-70
2022/02/28 03:43:16;;;;;;;11.80;6.53;;;-1.10;99.90;;;;;;5070892;28;20619;-70
2022/02/28 03:45:44;;;;;;;9.47;5.97;;;-1.10;99.90;;;;;;5074106;28;20232;-71
2022/02/28 03:48:13;;;;;;;9.03;5.60;;;-1.20;99.90;;;;;;5064566;28;20201;-71
2022/02/28 03:50:41;;;;;;;8.37;5.57;;;-1.20;99.90;;;;;;5075550;28;20201;-71
2022/02/28 03:53:13;;;;;;;9.33;6.00;;;-1.20;99.90;;;;;;5075046;28;20225;-71
2022/02/28 03:55:42;;;;;;;11.07;5.43;;;-1.20;99.90;;;;;;5075449;28;20193;-70
2022/02/28 03:58:08;;;;;;;9.93;5.57;;;-1.20;99.90;;;;;;5054713;28;20229;-69
2022/02/28 04:00:36;;;;;;;10.73;5.83;;;-1.30;99.90;;;;;;5065184;28;20198;-70
2022/02/28 04:03:03;;;;;;;10.53;5.67;;;-1.30;99.90;;;;;;5069742;28;20186;-70
2022/02/28 04:05:32;;;;;;;10.80;5.67;;;-1.30;99.90;;;;;;5051851;28;20309;-69
2022/02/28 04:07:58;;;;;;;9.00;5.50;;;-1.30;99.90;;;;;;5054342;28;20241;-68
2022/02/28 04:10:25;;;;;;;8.23;5.30;;;-1.30;99.90;;;;;;5063994;28;20301;-69
2022/02/28 04:12:52;;;;;;;8.40;5.67;;;-1.40;99.90;;;;;;5051379;28;20257;-69
2022/02/28 04:15:19;;;;;;;8.83;5.37;;;-1.40;99.90;;;;;;5052377;28;20212;-69
2022/02/28 04:17:46;;;;;;;11.37;6.67;;;-1.40;99.90;;;;;;5052161;28;20730;-69
2022/02/28 04:20:12;;;;;;;8.67;5.40;;;-1.40;99.90;;;;;;5038982;28;20202;-70
2022/02/28 04:22:41;;;;;;;10.07;4.83;;;-1.40;99.90;;;;;;5051358;28;20252;-70
2022/02/28 04:25:09;;;;;;;10.03;5.70;;;-1.40;99.90;;;;;;5052516;28;20216;-69
2022/02/28 04:27:36;;;;;;;9.27;5.40;;;-1.40;99.90;;;;;;5050634;28;20209;-70
2022/02/28 04:30:03;;;;;;;10.70;5.50;;;-1.40;99.90;;;;;;5052583;28;20305;-71
2022/02/28 04:32:30;;;;;;;11.00;5.07;;;-1.40;99.90;;;;;;5053665;28;20233;-69
2022/02/28 04:34:57;;;;;;;9.67;5.10;;;-1.40;99.90;;;;;;5058611;28;20240;-69
2022/02/28 04:37:24;;;;;;;9.53;5.50;;;-1.40;99.90;;;;;;5054764;28;20285;-69
2022/02/28 04:39:53;;;;;;;9.60;4.90;;;-1.40;99.90;;;;;;5046017;28;20210;-69
2022/02/28 04:42:21;;;;;;;8.40;5.03;;;-1.50;99.90;;;;;;5054718;28;20208;-69
2022/02/28 04:44:48;;;;;;;7.80;5.27;;;-1.50;99.90;;;;;;5055683;28;20233;-69
2022/02/28 04:47:15;;;;;;;9.13;5.10;;;-1.50;99.90;;;;;;5049711;28;20245;-70
2022/02/28 04:49:42;;;;;;;7.87;4.73;;;-1.50;99.90;;;;;;5057604;28;20292;-69
2022/02/28 04:52:09;;;;;;;8.67;5.43;;;-1.50;99.90;;;;;;5054534;28;20752;-69
2022/02/28 04:54:36;;;;;;;9.47;5.27;;;-1.50;99.90;;;;;;5054536;28;20210;-69
2022/02/28 04:57:05;;;;;;;9.10;5.30;;;-1.50;99.90;;;;;;5053262;28;20205;-70
2022/02/28 04:59:33;;;;;;;9.13;5.50;;;-1.50;99.90;;;;;;5051350;28;20705;-69
2022/02/28 05:01:59;;;;;;;8.87;5.07;;;-1.50;99.90;;;;;;5048649;28;20214;-69
2022/02/28 05:04:26;;;;;;;10.60;5.20;;;-1.50;99.90;;;;;;5054917;28;20208;-70
2022/02/28 05:06:53;;;;;;;10.23;4.90;;;-1.50;99.90;;;;;;5054507;28;20237;-70
2022/02/28 05:09:20;;;;;;;8.43;5.57;;;-1.50;99.90;;;;;;5047792;28;20217;-69
2022/02/28 05:11:47;;;;;;;9.30;5.03;;;-1.50;99.90;;;;;;5052523;28;20221;-70
2022/02/28 05:14:15;;;;;;;9.00;4.57;;;-1.50;99.90;;;;;;5055263;28;20229;-70
2022/02/28 05:16:42;;;;;;;9.20;5.07;;;-1.50;99.90;;;;;;5051751;28;20241;-69
2022/02/28 05:19:09;;;;;;;8.10;4.73;;;-1.50;99.90;;;;;;5048880;28;20541;-69
2022/02/28 05:21:36;;;;;;;7.10;4.37;;;-1.50;99.90;;;;;;5047972;28;20291;-72
2022/02/28 05:24:04;;;;;;;9.47;4.73;;;-1.50;99.90;;;;;;5051520;28;20210;-69
2022/02/28 05:26:30;;;;;;;8.67;4.90;;;-1.60;99.90;;;;;;5054365;28;20724;-69
2022/02/28 05:28:58;;;;;;;7.93;4.97;;;-1.60;99.90;;;;;;5058082;28;20207;-68
2022/02/28 05:31:26;;;;;;;9.33;5.23;;;-1.60;99.90;;;;;;5054340;28;20220;-69
2022/02/28 05:33:53;;;;;;;9.50;5.30;;;-1.60;99.90;;;;;;5051366;28;20347;-68
2022/02/28 05:36:19;;;;;;;8.87;4.77;;;-1.70;99.90;;;;;;5061617;28;20240;-68
2022/02/28 05:38:46;;;;;;;8.23;5.07;;;-1.60;99.90;;;;;;5049861;28;20212;-68
2022/02/28 05:41:13;;;;;;;7.60;4.50;;;-1.60;99.90;;;;;;5057150;28;20209;-68
2022/02/28 05:43:40;;;;;;;8.03;4.63;;;-1.60;99.90;;;;;;5051010;28;20234;-68
2022/02/28 05:46:09;;;;;;;9.60;4.63;;;-1.60;99.90;;;;;;5052804;28;20216;-69
2022/02/28 05:48:37;;;;;;;8.07;4.27;;;-1.60;99.90;;;;;;5056504;28;20216;-69
2022/02/28 05:51:04;;;;;;;6.07;4.50;;;-1.60;99.90;;;;;;5049545;28;20206;-70
2022/02/28 05:53:31;;;;;;;9.40;4.80;;;-1.50;99.90;;;;;;5054392;28;20317;-69
2022/02/28 05:55:58;;;;;;;7.10;4.23;;;-1.50;99.90;;;;;;5050959;28;20304;-69
2022/02/28 05:58:25;;;;;;;11.53;5.23;;;-1.40;99.90;;;;;;5054846;28;20249;-69
2022/02/28 06:00:52;;;;;;;9.87;4.77;;;-1.40;99.90;;;;;;5049219;28;20206;-69
2022/02/28 06:03:18;;;;;;;8.73;4.90;;;-1.30;99.90;;;;;;5048145;28;20210;-69
2022/02/28 06:05:47;;;;;;;9.07;5.00;;;-1.20;99.90;;;;;;5042606;28;20691;-69
2022/02/28 06:08:13;;;;;;;14.97;4.77;;;-1.00;99.90;;;;;;5052359;28;20269;-69
2022/02/28 06:10:40;;;;;;;8.57;5.20;;;-0.70;99.90;;;;;;5056651;28;20202;-69
2022/02/28 06:13:07;;;;;;;8.93;5.33;;;-0.70;99.90;;;;;;5052926;28;20304;-70
2022/02/28 06:15:34;;;;;;;7.93;4.90;;;-0.60;99.90;;;;;;5051405;28;20208;-70
2022/02/28 06:18:02;;;;;;;9.43;4.70;;;-0.60;99.90;;;;;;5043885;28;20214;-70
2022/02/28 06:20:29;;;;;;;8.30;4.97;;;-0.60;99.90;;;;;;5051606;28;20228;-69
2022/02/28 06:22:57;;;;;;;11.37;5.80;;;-0.60;99.90;;;;;;5052026;28;20541;-70
2022/02/28 06:25:24;;;;;;;10.07;5.60;;;-0.60;99.90;;;;;;5049248;28;20298;-69
2022/02/28 06:27:52;;;;;;;9.70;5.40;;;-0.60;99.90;;;;;;5051879;28;20296;-70
2022/02/28 06:30:20;;;;;;;8.57;5.17;;;-0.50;99.90;;;;;;5050315;28;20206;-69
2022/02/28 06:32:47;;;;;;;10.07;5.90;;;-0.50;99.90;;;;;;5051830;28;20245;-70
2022/02/28 06:35:14;;;;;;;9.63;5.03;;;-0.40;99.90;;;;;;5049481;28;20261;-69
2022/02/28 06:37:41;;;;;;;10.67;5.57;;;-0.30;99.90;;;;;;5048414;28;20723;-70
2022/02/28 06:40:11;;;;;;;9.30;5.47;;;-0.20;99.90;;;;;;5052571;28;20675;-69
2022/02/28 06:42:37;;;;;;;6.57;4.77;;;-0.10;99.90;;;;;;5057205;28;20216;-69
2022/02/28 06:45:05;;;;;;;7.83;5.00;;;0.00;99.90;;;;;;5048906;28;20324;-69
2022/02/28 06:47:32;;;;;;;9.23;5.27;;;0.00;99.90;;;;;;5048136;28;20245;-69
2022/02/28 06:49:59;;;;;;;11.80;6.00;;;0.00;99.90;;;;;;5058790;28;20293;-69
2022/02/28 06:52:26;;;;;;;9.00;4.93;;;0.00;99.90;;;;;;5052643;28;20655;-69
2022/02/28 06:54:54;;;;;;;10.60;5.00;;;0.10;99.90;;;;;;5046155;28;20262;-70
2022/02/28 06:57:23;;;;;;;8.67;4.90;;;0.20;99.90;;;;;;5062139;28;20240;-69
2022/02/28 06:59:50;;;;;;;8.43;5.07;;;0.30;99.90;;;;;;5053339;28;20217;-68
2022/02/28 07:02:17;;;;;;;9.20;5.43;;;0.30;99.90;;;;;;5052821;28;20252;-71
2022/02/28 07:04:44;;;;;;;7.93;5.00;;;0.40;99.90;;;;;;5053101;28;20320;-69
2022/02/28 07:07:12;;;;;;;10.70;5.70;;;0.40;99.90;;;;;;5052449;28;20297;-70
2022/02/28 07:09:39;;;;;;;9.33;4.80;;;0.40;99.90;;;;;;5066318;28;20198;-70
2022/02/28 07:12:07;;;;;;;9.17;5.60;;;0.50;99.90;;;;;;5048825;28;20210;-70
2022/02/28 07:14:37;;;;;;;10.33;5.63;;;0.60;99.90;;;;;;5049129;28;20265;-71
2022/02/28 07:17:04;;;;;;;7.87;4.77;;;0.80;99.90;;;;;;5053128;28;20734;-68
2022/02/28 07:19:32;;;;;;;10.80;4.83;;;1.00;99.90;;;;;;5050854;28;20201;-69
2022/02/28 07:21:59;;;;;;;10.00;5.17;;;1.20;99.90;;;;;;5052706;28;20601;-68
2022/02/28 07:24:27;;;;;;;8.13;5.23;;;1.60;99.90;;;;;;5052057;28;20283;-69
2022/02/28 07:26:53;;;;;;;8.43;4.87;;;1.80;99.90;;;;;;5053230;28;20275;-69
2022/02/28 07:29:20;;;;;;;10.33;5.03;;;1.90;99.90;;;;;;5054764;28;20205;-69
2022/02/28 07:31:49;;;;;;;8.67;4.87;;;2.10;99.90;;;;;;5049377;28;20201;-69
2022/02/28 07:34:16;;;;;;;12.43;5.00;;;2.20;99.90;;;;;;5049338;28;20222;-69
2022/02/28 07:36:43;;;;;;;9.60;4.83;;;2.30;99.90;;;;;;5055889;28;20220;-69
2022/02/28 07:39:10;;;;;;;7.23;4.57;;;2.40;99.90;;;;;;5051671;28;20293;-71
2022/02/28 07:41:37;;;;;;;8.33;4.43;;;2.50;99.90;;;;;;5040780;28;20218;-69
2022/02/28 07:44:05;;;;;;;7.90;4.47;;;2.60;99.90;;;;;;5046071;28;20241;-69
2022/02/28 07:46:32;;;;;;;8.80;4.90;;;2.70;99.90;;;;;;5045992;28;20217;-69
2022/02/28 07:49:01;;;;;;;8.27;4.33;;;2.90;99.90;;;;;;5052868;28;20253;-71
2022/02/28 07:51:28;;;;;;;7.80;4.20;;;3.00;99.90;;;;;;5054262;28;20206;-70
2022/02/28 07:53:55;;;;;;;9.20;4.20;;;3.20;99.90;;;;;;5050657;28;20313;-69
2022/02/28 07:56:22;;;;;;;7.00;4.57;;;3.20;99.90;;;;;;5053496;28;20297;-71
2022/02/28 07:58:49;;;;;;;8.47;4.60;;;3.30;99.90;;;;;;5051461;28;20206;-72
2022/02/28 08:01:16;;;;;;;8.13;4.63;;;3.40;99.90;;;;;;5058180;28;20233;-76
2022/02/28 08:03:43;;;;;;;9.03;5.00;;;3.50;99.90;;;;;;5064539;28;20205;-72
2022/02/28 08:06:11;;;;;;;6.20;4.33;;;3.60;99.90;;;;;;5058758;28;20208;-71
2022/02/28 08:08:38;;;;;;;9.57;4.20;;;3.90;99.90;;;;;;5058956;28;20298;-70
2022/02/28 08:11:05;;;;;;;4.57;3.50;;;3.90;99.70;;;;;;5060657;28;20203;-69
2022/02/28 08:13:31;;;;;;;6.87;3.93;;;4.10;99.40;;;;;;5060278;28;20301;-69
2022/02/28 08:16:00;;;;;;;6.70;4.13;;;4.10;97.60;;;;;;5064314;28;20252;-70
2022/02/28 08:18:27;;;;;;;6.83;4.10;;;4.10;97.40;;;;;;5061915;28;20201;-70
2022/02/28 08:20:54;;;;;;;7.57;4.40;;;4.20;97.40;;;;;;5055295;28;20261;-69
2022/02/28 08:23:22;;;;;;;8.67;4.37;;;4.30;97.20;;;;;;5051350;28;20212;-71
2022/02/28 08:25:49;;;;;;;5.30;3.20;;;4.50;97.10;;;;;;5067551;28;20228;-72
2022/02/28 08:28:16;;;;;;;4.80;2.90;;;4.60;96.00;;;;;;5056487;28;20240;-70
2022/02/28 08:30:43;;;;;;;7.17;3.70;;;4.70;95.20;;;;;;5063092;28;20209;-69
2022/02/28 08:33:10;;;;;;;4.83;3.23;;;4.70;94.40;;;;;;5060856;28;20204;-73
2022/02/28 08:35:37;;;;;;;9.00;3.40;;;4.70;94.50;;;;;;5071497;28;20212;-72
2022/02/28 08:38:04;;;;;;;8.20;3.17;;;4.70;93.10;;;;;;5071433;28;20249;-72
2022/02/28 08:40:33;;;;;;;5.53;3.87;;;4.60;93.10;;;;;;5062811;28;20237;-75
2022/02/28 08:43:00;;;;;;;4.43;3.57;;;4.70;93.70;;;;;;5056587;28;20295;-74
2022/02/28 08:45:27;;;;;;;6.17;3.60;;;4.90;93.70;;;;;;5056354;28;20204;-71
2022/02/28 08:47:54;;;;;;;6.13;3.10;;;5.00;93.10;;;;;;5060640;28;20247;-75
2022/02/28 08:50:21;;;;;;;5.47;3.13;;;5.20;93.00;;;;;;5060348;28;20387;-72
2022/02/28 08:52:49;;;;;;;5.13;3.53;;;5.30;91.80;;;;;;5053870;28;20203;-75
2022/02/28 08:55:16;;;;;;;6.13;3.63;;;5.40;91.60;;;;;;5070966;28;20312;-73
2022/02/28 08:57:44;;;;;;;5.77;3.83;;;5.50;91.50;;;;;;5053859;28;20257;-73
2022/02/28 09:00:13;;;;;;;4.70;3.17;;;5.70;91.00;;;;;;5063279;28;20268;-72
2022/02/28 09:02:41;;;;;;;12.73;3.40;;;5.90;90.70;;;;;;5048085;28;20264;-73
2022/02/28 09:05:08;;;;;;;4.33;2.90;;;6.20;90.80;;;;;;5049096;28;20210;-72
2022/02/28 09:07:35;;;;;;;8.90;2.77;;;6.50;88.70;;;;;;5055195;28;20284;-72
2022/02/28 09:10:03;;;;;;;4.20;2.87;;;6.60;86.40;;;;;;5054366;28;20655;-71
2022/02/28 09:12:30;;;;;;;6.30;3.10;;;6.70;85.10;;;;;;5054544;28;20221;-73
2022/02/28 09:14:59;;;;;;;4.93;2.93;;;6.90;90.00;;;;;;5053347;28;20226;-71
2022/02/28 09:17:26;;;;;;;4.83;3.03;;;7.40;86.80;;;;;;5055955;28;20734;-72
2022/02/28 09:19:53;;;;;;;5.83;2.83;;;8.90;88.80;;;;;;5056187;28;20706;-72
2022/02/28 09:22:21;;;;;;;11.83;3.27;;;11.50;74.20;;;;;;5060180;28;20282;-72
2022/02/28 09:24:48;;;;;;;4.67;2.53;;;14.40;62.40;;;;;;5060334;28;20275;-71
2022/02/28 09:27:15;;;;;;;5.53;3.20;;;17.10;52.30;;;;;;5056736;28;20213;-71
2022/02/28 09:29:42;;;;;;;4.90;2.77;;;19.10;46.00;;;;;;5051087;28;20732;-72
2022/02/28 09:32:11;;;;;;;4.15;3.08;;;21.00;41.70;;;;;;5049780;28;20206;-71
2022/02/28 09:34:39;;;;;;;8.10;5.88;;;22.50;38.40;;;;;;5052863;28;20222;-72
2022/02/28 09:37:06;;;;;;;4.85;2.95;;;23.40;35.00;;;;;;5044790;28;20242;-72
2022/02/28 09:39:33;;;;;;;4.00;2.95;;;24.00;34.10;;;;;;5051995;28;20255;-73
2022/02/28 09:42:00;;;;;;;5.00;3.20;;;24.70;32.60;;;;;;5041149;28;20206;-72
2022/02/28 09:44:27;;;;;;;4.97;3.13;;;25.60;31.50;;;;;;5047165;28;20235;-71
2022/02/28 09:46:55;;;;;;;5.47;2.88;;;26.70;30.20;;;;;;5048598;28;20533;-71
2022/02/28 09:49:23;;;;;;;7.05;2.88;;;26.90;28.70;;;;;;5065721;28;20206;-70
2022/02/28 09:51:50;;;;;;;3.97;2.90;;;25.90;29.30;;;;;;5056435;28;21004;-70
2022/02/28 09:54:18;;;;;;;4.78;3.20;;;26.50;28.80;;;;;;5059139;28;20570;-69
2022/02/28 09:56:45;;;;;;;4.43;2.83;;;26.30;27.30;;;;;;5053145;28;20447;-69
2022/02/28 09:59:14;;;;;;;3.45;2.03;;;25.60;27.30;;;;;;5055068;28;20664;-71
2022/02/28 10:01:44;;;;;;;3.80;2.60;;;23.40;26.50;;;;;;5052601;28;20212;-72
2022/02/28 10:04:13;;;;;;;3.95;2.45;;;21.70;28.30;;;;;;5044567;28;20212;-71
2022/02/28 10:06:42;;;;;;;4.32;3.13;;;21.50;29.50;;;;;;5049792;28;20260;-72
2022/02/28 10:09:09;;;;;;;4.30;2.33;;;21.60;29.20;;;;;;5054591;28;20313;-73
2022/02/28 10:11:39;;;;;;;3.88;3.15;;;22.70;29.10;;;;;;5052103;28;20245;-72
2022/02/28 10:14:08;;;;;;;3.50;2.20;;;22.70;28.50;;;;;;5058206;28;20647;-72
2022/02/28 10:16:38;;;;;;;3.95;2.25;;;23.60;28.90;;;;;;5061292;28;20210;-74
2022/02/28 10:19:07;;;;;;;3.85;2.83;;;25.30;28.30;;;;;;5055537;28;20213;-73
2022/02/28 10:21:38;;;;;;;5.82;3.25;;;27.10;27.30;;;;;;5052501;28;20663;-74
2022/02/28 10:24:08;;;;;;;5.97;3.15;;;28.60;26.20;;;;;;5048425;28;20236;-73
2022/02/28 10:26:43;;;;;;;3.78;2.83;;;29.50;25.60;;;;;;5048690;28;20214;-72
2022/02/28 10:29:12;;;;;;;2.95;2.42;;;30.50;25.30;;;;;;5050201;28;20201;-69
2022/02/28 10:31:40;;;;;;;5.38;3.17;;;31.60;24.40;;;;;;5044913;28;20444;-72
2022/02/28 10:34:19;;;;;;;2.65;1.70;;;31.60;23.00;;;;;;5049394;28;20204;-72
2022/02/28 10:36:48;;;;;;;3.25;2.10;;;31.20;22.00;;;;;;5052835;28;20459;-72
2022/02/28 10:39:24;;;;;;;2.33;1.73;;;30.60;21.90;;;;;;5060295;28;20241;-72
2022/02/28 10:41:51;;;;;;;2.40;1.98;;;30.70;22.10;;;;;;5058357;28;20209;-72
2022/02/28 10:44:18;;;;;;;3.78;1.80;;;31.00;21.50;;;;;;5057484;28;20233;-72
2022/02/28 10:46:47;;;;;;;4.82;2.58;;;31.00;21.50;;;;;;5045060;28;20440;-72
2022/02/28 10:49:16;;;;;;;2.67;2.10;;;30.60;21.50;;;;;;5048366;28;20288;-72
2022/02/28 10:51:54;;;;;;;3.72;2.45;;;30.50;22.00;;;;;;5051096;28;20225;-71
2022/02/28 10:54:26;;;;;;;3.22;2.00;;;31.20;21.60;;;;;;5049005;28;20703;-72
2022/02/28 10:56:56;;;;;;;3.25;1.73;;;31.20;20.70;;;;;;5043553;28;20209;-73
2022/02/28 10:59:26;;;;;;;2.72;1.67;;;30.80;20.60;;;;;;5045852;28;20293;-72
2022/02/28 11:01:53;;;;;;;3.83;1.67;;;30.70;20.60;;;;;;5046982;28;20210;-72
2022/02/28 11:04:40;;;;;;;5.97;1.30;;;30.40;20.50;;;;;;5042638;28;20275;-70
2022/02/28 11:07:10;;;;;;;3.92;2.28;;;30.00;20.00;;;;;;5054603;28;20293;-72
2022/02/28 11:09:40;;;;;;;2.80;1.77;;;29.30;20.20;;;;;;5055450;28;20206;-72
2022/02/28 11:12:21;;;;;;;2.58;1.30;;;29.20;20.50;;;;;;5059786;28;20691;-72
2022/02/28 11:14:48;;;;;;;2.50;1.70;;;29.70;20.50;;;;;;5054657;28;20308;-72
2022/02/28 11:17:18;;;;;;;2.20;1.50;;;29.70;20.40;;;;;;5050275;28;20703;-74
2022/02/28 11:19:46;;;;;;;5.10;2.33;;;29.70;20.30;;;;;;5053581;28;20217;-70
2022/02/28 11:22:13;;;;;;;1.88;1.55;;;29.80;21.00;;;;;;5054109;28;20223;-76
2022/02/28 11:24:41;;;;;;;2.17;1.85;;;30.70;20.30;;;;;;5046202;28;20204;-73
2022/02/28 11:27:08;;;;;;;2.47;1.40;;;31.20;20.20;;;;;;5042745;28;20577;-74
2022/02/28 11:29:35;;;;;;;1.75;1.30;;;32.20;20.00;;;;;;5048525;28;20210;-73
2022/02/28 11:32:02;;;;;;;2.15;1.40;;;33.20;19.40;;;;;;5054007;28;20635;-72
2022/02/28 11:34:29;;;;;;;1.42;1.10;;;33.40;18.80;;;;;;5057886;28;20939;-72
2022/02/28 11:37:00;;;;;;;2.83;1.33;;;33.20;18.40;;;;;;5053118;28;20317;-72
2022/02/28 11:39:31;;;;;;;2.40;1.20;;;32.30;18.00;;;;;;5063706;28;20678;-72
2022/02/28 11:42:00;;;;;;;1.50;1.20;;;31.80;18.80;;;;;;5066478;28;20217;-71
2022/02/28 11:44:27;;;;;;;3.55;0.95;;;31.70;18.60;;;;;;5065124;28;20277;-73
2022/02/28 11:47:01;;;;;;;1.95;1.20;;;31.20;18.20;;;;;;5062124;28;20216;-73
2022/02/28 11:49:40;;;;;;;1.55;1.27;;;30.70;18.20;;;;;;5059461;28;20635;-72
2022/02/28 11:52:32;;;;;;;2.38;1.60;;;30.80;18.80;;;;;;5062429;28;20205;-73
2022/02/28 11:55:00;;;;;;;1.83;1.10;;;31.50;18.70;;;;;;5054876;28;20256;-73
2022/02/28 11:57:51;;;;;;;2.88;1.40;;;31.70;18.00;;;;;;5056053;28;20217;-73
2022/02/28 12:00:23;;;;;;;2.75;1.60;;;30.90;18.50;;;;;;5056553;28;20384;-73
2022/02/28 12:02:50;;;;;;;1.73;1.40;;;30.80;18.90;;;;;;5056417;28;20229;-73
2022/02/28 12:05:40;;;;;;;2.50;2.13;;;31.40;18.30;;;;;;5060171;28;20198;-72
2022/02/28 12:08:09;;;;;;;2.33;1.77;;;31.80;18.20;;;;;;5058357;28;20202;-72
2022/02/28 12:10:37;;;;;;;3.13;1.60;;;32.10;18.50;;;;;;5048771;28;20237;-70
2022/02/28 12:13:06;;;;;;;3.78;1.90;;;32.90;18.40;;;;;;5055670;28;20632;-70
2022/02/28 12:15:33;;;;;;;3.90;1.60;;;34.30;19.00;;;;;;5050494;28;20747;-69
2022/02/28 12:18:08;;;;;;;2.50;1.35;;;36.20;17.80;;;;;;5043359;28;20211;-69
2022/02/28 12:20:37;;;;;;;2.42;2.00;;;36.60;17.60;;;;;;5049401;28;20778;-70
2022/02/28 12:23:13;;;;;;;4.40;2.53;;;36.20;17.40;;;;;;5050531;28;20517;-69
2022/02/28 12:25:43;;;;;;;4.45;1.70;;;35.80;17.80;;;;;;5049837;28;20204;-69
2022/02/28 12:28:24;;;;;;;3.45;2.10;;;36.30;17.50;;;;;;5050523;28;20359;-69
2022/02/28 12:30:54;;;;;;;2.33;1.63;;;36.60;17.40;;;;;;5057381;28;20220;-69
2022/02/28 12:33:26;;;;;;;2.30;1.50;;;37.10;17.20;;;;;;5046689;28;20724;-69
2022/02/28 12:36:02;;;;;;;2.63;1.65;;;37.60;16.90;;;;;;5061972;28;20628;-69
2022/02/28 12:38:32;;;;;;;4.90;1.95;;;38.10;17.20;;;;;;5051738;28;20202;-69
2022/02/28 12:41:01;;;;;;;2.63;2.03;;;38.80;16.00;;;;;;5053345;28;20206;-70
2022/02/28 12:43:32;;;;;;;3.53;2.28;;;39.00;16.40;;;;;;5059663;28;20328;-68
2022/02/28 12:46:01;;;;;;;1.90;1.50;;;38.90;16.20;;;;;;5052140;28;20202;-69
2022/02/28 12:48:29;;;;;;;3.63;1.83;;;38.00;16.30;;;;;;5055662;28;21450;-68
2022/02/28 12:50:58;;;;;;;2.35;1.90;;;37.70;16.40;;;;;;5058112;28;20320;-69